sensor_id;sensor_type;location;lat;lon;timestamp;P1;durP1;ratioP1;P2;durP2;ratioP2
24325;SDS011;12448;45.532;5.290;2023-04-03T00:01:09;415.27;;;12.98;;
24325;SDS011;12448;45.532;5.290;2023-04-03T00:03:35;199.43;;;9.02;;
24325;SDS011;12448;45.532;5.290;2023-04-03T00:06:01;16.13;;;5.25;;
24325;SDS011;12448;45.532;5.290;2023-04-03T00:08:28;208.52;;;8.50;;
24325;SDS011;12448;45.532;5.290;2023-04-03T00:10:55;354.52;;;11.57;;
24325;SDS011;12448;45.532;5.290;2023-04-03T00:13:22;158.40;;;7.68;;
24325;SDS011;12448;45.532;5.290;2023-04-03T00:15:48;34.90;;;5.85;;
24325;SDS011;12448;45.532;5.290;2023-04-03T00:18:14;78.40;;;6.65;;
24325;SDS011;12448;45.532;5.290;2023-04-03T00:20:40;55.40;;;5.88;;
24325;SDS011;12448;45.532;5.290;2023-04-03T00:23:06;554.92;;;16.80;;
24325;SDS011;12448;45.532;5.290;2023-04-03T00:25:31;328.85;;;11.60;;
24325;SDS011;12448;45.532;5.290;2023-04-03T00:27:57;282.85;;;10.45;;
24325;SDS011;12448;45.532;5.290;2023-04-03T00:30:22;332.05;;;10.73;;
24325;SDS011;12448;45.532;5.290;2023-04-03T00:32:48;470.77;;;13.90;;
24325;SDS011;12448;45.532;5.290;2023-04-03T00:35:15;422.10;;;12.45;;
24325;SDS011;12448;45.532;5.290;2023-04-03T00:37:41;653.80;;;18.15;;
24325;SDS011;12448;45.532;5.290;2023-04-03T00:40:08;576.60;;;15.65;;
24325;SDS011;12448;45.532;5.290;2023-04-03T00:42:39;781.58;;;20.50;;
24325;SDS011;12448;45.532;5.290;2023-04-03T00:47:31;353.50;;;12.38;;
24325;SDS011;12448;45.532;5.290;2023-04-03T00:49:57;449.25;;;13.70;;
24325;SDS011;12448;45.532;5.290;2023-04-03T00:52:25;636.90;;;17.70;;
24325;SDS011;12448;45.532;5.290;2023-04-03T00:54:54;668.80;;;17.85;;
24325;SDS011;12448;45.532;5.290;2023-04-03T00:57:24;526.67;;;16.23;;
24325;SDS011;12448;45.532;5.290;2023-04-03T00:59:52;592.65;;;16.30;;
24325;SDS011;12448;45.532;5.290;2023-04-03T01:02:22;642.67;;;18.02;;
24325;SDS011;12448;45.532;5.290;2023-04-03T01:04:48;593.03;;;17.35;;
24325;SDS011;12448;45.532;5.290;2023-04-03T01:07:24;602.85;;;16.52;;
24325;SDS011;12448;45.532;5.290;2023-04-03T01:09:56;823.72;;;20.58;;
24325;SDS011;12448;45.532;5.290;2023-04-03T01:12:27;821.20;;;22.15;;
24325;SDS011;12448;45.532;5.290;2023-04-03T01:14:58;653.78;;;18.80;;
24325;SDS011;12448;45.532;5.290;2023-04-03T01:17:46;972.13;;;24.92;;
24325;SDS011;12448;45.532;5.290;2023-04-03T01:20:30;760.40;;;20.48;;
24325;SDS011;12448;45.532;5.290;2023-04-03T01:25:27;604.85;;;17.75;;
24325;SDS011;12448;45.532;5.290;2023-04-03T01:27:53;849.47;;;22.15;;
24325;SDS011;12448;45.532;5.290;2023-04-03T01:30:19;945.30;;;25.38;;
24325;SDS011;12448;45.532;5.290;2023-04-03T01:32:50;822.90;;;22.23;;
24325;SDS011;12448;45.532;5.290;2023-04-03T01:35:15;46.20;;;7.00;;
24325;SDS011;12448;45.532;5.290;2023-04-03T01:37:41;499.80;;;15.65;;
24325;SDS011;12448;45.532;5.290;2023-04-03T01:40:07;25.58;;;6.55;;
24325;SDS011;12448;45.532;5.290;2023-04-03T01:42:33;9.38;;;5.22;;
24325;SDS011;12448;45.532;5.290;2023-04-03T01:44:58;10.57;;;5.22;;
24325;SDS011;12448;45.532;5.290;2023-04-03T01:47:24;13.55;;;6.70;;
24325;SDS011;12448;45.532;5.290;2023-04-03T01:49:50;20.42;;;6.43;;
24325;SDS011;12448;45.532;5.290;2023-04-03T01:52:15;8.30;;;4.80;;
24325;SDS011;12448;45.532;5.290;2023-04-03T01:54:41;28.70;;;5.88;;
24325;SDS011;12448;45.532;5.290;2023-04-03T01:57:07;63.30;;;6.88;;
24325;SDS011;12448;45.532;5.290;2023-04-03T01:59:32;11.18;;;6.28;;
24325;SDS011;12448;45.532;5.290;2023-04-03T02:01:58;15.18;;;6.00;;
24325;SDS011;12448;45.532;5.290;2023-04-03T02:04:24;9.60;;;6.10;;
24325;SDS011;12448;45.532;5.290;2023-04-03T02:06:50;17.42;;;6.00;;
24325;SDS011;12448;45.532;5.290;2023-04-03T02:09:15;20.85;;;6.63;;
24325;SDS011;12448;45.532;5.290;2023-04-03T02:11:41;39.85;;;7.57;;
24325;SDS011;12448;45.532;5.290;2023-04-03T02:14:06;106.43;;;9.15;;
24325;SDS011;12448;45.532;5.290;2023-04-03T02:16:32;102.75;;;8.20;;
24325;SDS011;12448;45.532;5.290;2023-04-03T02:18:58;37.08;;;6.78;;
24325;SDS011;12448;45.532;5.290;2023-04-03T02:21:23;12.75;;;5.80;;
24325;SDS011;12448;45.532;5.290;2023-04-03T02:23:49;81.28;;;7.07;;
24325;SDS011;12448;45.532;5.290;2023-04-03T02:26:15;37.25;;;6.10;;
24325;SDS011;12448;45.532;5.290;2023-04-03T02:28:42;41.70;;;6.57;;
24325;SDS011;12448;45.532;5.290;2023-04-03T02:31:08;27.13;;;6.18;;
24325;SDS011;12448;45.532;5.290;2023-04-03T02:33:35;37.15;;;5.63;;
24325;SDS011;12448;45.532;5.290;2023-04-03T02:36:02;11.55;;;5.68;;
24325;SDS011;12448;45.532;5.290;2023-04-03T02:38:32;8.05;;;5.25;;
24325;SDS011;12448;45.532;5.290;2023-04-03T02:41:05;15.13;;;5.40;;
24325;SDS011;12448;45.532;5.290;2023-04-03T02:43:32;10.15;;;6.03;;
24325;SDS011;12448;45.532;5.290;2023-04-03T02:45:58;7.45;;;4.90;;
24325;SDS011;12448;45.532;5.290;2023-04-03T02:48:24;134.00;;;9.02;;
24325;SDS011;12448;45.532;5.290;2023-04-03T02:50:49;12.27;;;5.88;;
24325;SDS011;12448;45.532;5.290;2023-04-03T02:53:16;16.15;;;6.22;;
24325;SDS011;12448;45.532;5.290;2023-04-03T02:55:42;194.23;;;9.68;;
24325;SDS011;12448;45.532;5.290;2023-04-03T02:58:08;113.45;;;8.10;;
24325;SDS011;12448;45.532;5.290;2023-04-03T03:00:34;195.10;;;9.77;;
24325;SDS011;12448;45.532;5.290;2023-04-03T03:03:00;112.15;;;8.45;;
24325;SDS011;12448;45.532;5.290;2023-04-03T03:05:26;10.30;;;6.28;;
24325;SDS011;12448;45.532;5.290;2023-04-03T03:07:53;10.23;;;6.10;;
24325;SDS011;12448;45.532;5.290;2023-04-03T03:10:19;85.22;;;7.40;;
24325;SDS011;12448;45.532;5.290;2023-04-03T03:12:45;99.80;;;7.45;;
24325;SDS011;12448;45.532;5.290;2023-04-03T03:15:11;19.20;;;5.93;;
24325;SDS011;12448;45.532;5.290;2023-04-03T03:17:37;9.93;;;6.53;;
24325;SDS011;12448;45.532;5.290;2023-04-03T03:20:03;13.10;;;7.03;;
24325;SDS011;12448;45.532;5.290;2023-04-03T03:22:30;9.40;;;6.28;;
24325;SDS011;12448;45.532;5.290;2023-04-03T03:24:55;11.02;;;5.93;;
24325;SDS011;12448;45.532;5.290;2023-04-03T03:27:21;13.55;;;10.18;;
24325;SDS011;12448;45.532;5.290;2023-04-03T03:29:48;16.38;;;9.23;;
24325;SDS011;12448;45.532;5.290;2023-04-03T03:32:14;20.52;;;10.77;;
24325;SDS011;12448;45.532;5.290;2023-04-03T03:34:40;101.18;;;8.18;;
24325;SDS011;12448;45.532;5.290;2023-04-03T03:37:05;113.22;;;9.85;;
24325;SDS011;12448;45.532;5.290;2023-04-03T03:39:31;562.47;;;74.90;;
24325;SDS011;12448;45.532;5.290;2023-04-03T03:41:56;546.35;;;63.92;;
24325;SDS011;12448;45.532;5.290;2023-04-03T03:44:22;826.13;;;98.32;;
24325;SDS011;12448;45.532;5.290;2023-04-03T03:46:48;566.85;;;19.45;;
24325;SDS011;12448;45.532;5.290;2023-04-03T03:49:13;569.35;;;21.75;;
24325;SDS011;12448;45.532;5.290;2023-04-03T03:51:39;680.58;;;30.95;;
24325;SDS011;12448;45.532;5.290;2023-04-03T03:54:05;426.73;;;16.92;;
24325;SDS011;12448;45.532;5.290;2023-04-03T03:56:31;160.48;;;14.32;;
24325;SDS011;12448;45.532;5.290;2023-04-03T03:58:59;103.90;;;56.60;;
24325;SDS011;12448;45.532;5.290;2023-04-03T04:01:25;62.45;;;28.83;;
24325;SDS011;12448;45.532;5.290;2023-04-03T04:03:51;58.38;;;21.27;;
24325;SDS011;12448;45.532;5.290;2023-04-03T04:06:18;63.65;;;27.38;;
24325;SDS011;12448;45.532;5.290;2023-04-03T04:08:44;81.82;;;15.75;;
24325;SDS011;12448;45.532;5.290;2023-04-03T04:11:10;17.35;;;12.77;;
24325;SDS011;12448;45.532;5.290;2023-04-03T04:13:36;87.47;;;35.30;;
24325;SDS011;12448;45.532;5.290;2023-04-03T04:16:01;179.38;;;60.75;;
24325;SDS011;12448;45.532;5.290;2023-04-03T04:18:27;113.15;;;19.98;;
24325;SDS011;12448;45.532;5.290;2023-04-03T04:20:53;118.78;;;19.20;;
24325;SDS011;12448;45.532;5.290;2023-04-03T04:23:19;148.25;;;11.50;;
24325;SDS011;12448;45.532;5.290;2023-04-03T04:25:45;150.35;;;16.30;;
24325;SDS011;12448;45.532;5.290;2023-04-03T04:28:11;591.85;;;24.73;;
24325;SDS011;12448;45.532;5.290;2023-04-03T04:30:37;229.57;;;24.60;;
24325;SDS011;12448;45.532;5.290;2023-04-03T04:33:03;443.35;;;16.08;;
24325;SDS011;12448;45.532;5.290;2023-04-03T04:35:28;679.05;;;22.13;;
24325;SDS011;12448;45.532;5.290;2023-04-03T04:37:54;607.65;;;23.00;;
24325;SDS011;12448;45.532;5.290;2023-04-03T04:40:20;169.07;;;10.80;;
24325;SDS011;12448;45.532;5.290;2023-04-03T04:42:46;489.55;;;21.20;;
24325;SDS011;12448;45.532;5.290;2023-04-03T04:45:12;379.25;;;24.58;;
24325;SDS011;12448;45.532;5.290;2023-04-03T04:47:38;12.20;;;9.20;;
24325;SDS011;12448;45.532;5.290;2023-04-03T04:50:03;13.32;;;9.15;;
24325;SDS011;12448;45.532;5.290;2023-04-03T04:52:29;26.95;;;9.65;;
24325;SDS011;12448;45.532;5.290;2023-04-03T04:54:55;11.98;;;7.95;;
24325;SDS011;12448;45.532;5.290;2023-04-03T04:57:21;57.05;;;9.25;;
24325;SDS011;12448;45.532;5.290;2023-04-03T04:59:46;17.75;;;9.50;;
24325;SDS011;12448;45.532;5.290;2023-04-03T05:02:12;10.00;;;7.43;;
24325;SDS011;12448;45.532;5.290;2023-04-03T05:04:37;10.07;;;7.25;;
24325;SDS011;12448;45.532;5.290;2023-04-03T05:07:03;13.80;;;7.70;;
24325;SDS011;12448;45.532;5.290;2023-04-03T05:09:29;13.38;;;8.20;;
24325;SDS011;12448;45.532;5.290;2023-04-03T05:11:54;10.18;;;7.45;;
24325;SDS011;12448;45.532;5.290;2023-04-03T05:14:21;10.23;;;6.70;;
24325;SDS011;12448;45.532;5.290;2023-04-03T05:16:47;12.23;;;7.90;;
24325;SDS011;12448;45.532;5.290;2023-04-03T05:19:13;12.30;;;8.70;;
24325;SDS011;12448;45.532;5.290;2023-04-03T05:21:38;14.50;;;8.80;;
24325;SDS011;12448;45.532;5.290;2023-04-03T05:24:04;13.43;;;9.40;;
24325;SDS011;12448;45.532;5.290;2023-04-03T05:26:34;12.20;;;7.22;;
24325;SDS011;12448;45.532;5.290;2023-04-03T05:28:59;11.25;;;7.88;;
24325;SDS011;12448;45.532;5.290;2023-04-03T05:31:25;10.02;;;7.10;;
24325;SDS011;12448;45.532;5.290;2023-04-03T05:33:54;12.32;;;7.78;;
24325;SDS011;12448;45.532;5.290;2023-04-03T05:36:20;11.52;;;8.02;;
24325;SDS011;12448;45.532;5.290;2023-04-03T05:38:46;10.27;;;6.95;;
24325;SDS011;12448;45.532;5.290;2023-04-03T05:41:12;9.80;;;7.18;;
24325;SDS011;12448;45.532;5.290;2023-04-03T05:43:38;18.92;;;8.45;;
24325;SDS011;12448;45.532;5.290;2023-04-03T05:46:08;14.45;;;9.43;;
24325;SDS011;12448;45.532;5.290;2023-04-03T05:48:38;14.98;;;9.25;;
24325;SDS011;12448;45.532;5.290;2023-04-03T05:51:05;9.52;;;6.40;;
24325;SDS011;12448;45.532;5.290;2023-04-03T05:53:31;12.68;;;7.82;;
24325;SDS011;12448;45.532;5.290;2023-04-03T05:56:00;9.52;;;6.63;;
24325;SDS011;12448;45.532;5.290;2023-04-03T05:58:26;17.27;;;11.45;;
24325;SDS011;12448;45.532;5.290;2023-04-03T06:00:51;15.35;;;9.27;;
24325;SDS011;12448;45.532;5.290;2023-04-03T06:03:17;11.63;;;7.85;;
24325;SDS011;12448;45.532;5.290;2023-04-03T06:05:43;13.18;;;9.07;;
24325;SDS011;12448;45.532;5.290;2023-04-03T06:08:08;14.20;;;8.85;;
24325;SDS011;12448;45.532;5.290;2023-04-03T06:10:34;14.57;;;10.40;;
24325;SDS011;12448;45.532;5.290;2023-04-03T06:13:01;13.27;;;9.43;;
24325;SDS011;12448;45.532;5.290;2023-04-03T06:15:27;18.42;;;9.63;;
24325;SDS011;12448;45.532;5.290;2023-04-03T06:17:53;15.52;;;11.50;;
24325;SDS011;12448;45.532;5.290;2023-04-03T06:20:19;16.60;;;9.43;;
24325;SDS011;12448;45.532;5.290;2023-04-03T06:22:44;18.35;;;11.02;;
24325;SDS011;12448;45.532;5.290;2023-04-03T06:25:13;20.13;;;11.63;;
24325;SDS011;12448;45.532;5.290;2023-04-03T06:27:39;37.53;;;21.60;;
24325;SDS011;12448;45.532;5.290;2023-04-03T06:30:05;18.70;;;11.45;;
24325;SDS011;12448;45.532;5.290;2023-04-03T06:32:32;18.10;;;11.13;;
24325;SDS011;12448;45.532;5.290;2023-04-03T06:34:57;14.30;;;9.38;;
24325;SDS011;12448;45.532;5.290;2023-04-03T06:37:23;22.52;;;12.20;;
24325;SDS011;12448;45.532;5.290;2023-04-03T06:39:54;27.95;;;16.02;;
24325;SDS011;12448;45.532;5.290;2023-04-03T06:42:20;21.75;;;11.68;;
24325;SDS011;12448;45.532;5.290;2023-04-03T06:44:46;16.45;;;10.52;;
24325;SDS011;12448;45.532;5.290;2023-04-03T06:47:15;21.17;;;11.50;;
24325;SDS011;12448;45.532;5.290;2023-04-03T06:49:42;25.77;;;14.98;;
24325;SDS011;12448;45.532;5.290;2023-04-03T06:52:08;28.70;;;10.85;;
24325;SDS011;12448;45.532;5.290;2023-04-03T06:54:35;484.80;;;33.97;;
24325;SDS011;12448;45.532;5.290;2023-04-03T06:57:01;712.33;;;25.35;;
24325;SDS011;12448;45.532;5.290;2023-04-03T06:59:27;824.20;;;28.33;;
24325;SDS011;12448;45.532;5.290;2023-04-03T07:01:52;986.90;;;34.10;;
24325;SDS011;12448;45.532;5.290;2023-04-03T07:04:18;1117.95;;;37.63;;
24325;SDS011;12448;45.532;5.290;2023-04-03T07:06:45;672.22;;;22.25;;
24325;SDS011;12448;45.532;5.290;2023-04-03T07:09:12;1079.07;;;37.63;;
24325;SDS011;12448;45.532;5.290;2023-04-03T07:11:39;1132.28;;;30.52;;
24325;SDS011;12448;45.532;5.290;2023-04-03T07:14:05;1033.05;;;31.27;;
24325;SDS011;12448;45.532;5.290;2023-04-03T07:16:32;1005.78;;;33.05;;
24325;SDS011;12448;45.532;5.290;2023-04-03T07:18:59;1002.90;;;31.45;;
24325;SDS011;12448;45.532;5.290;2023-04-03T07:21:25;86.57;;;15.85;;
24325;SDS011;12448;45.532;5.290;2023-04-03T07:23:51;861.35;;;33.20;;
24325;SDS011;12448;45.532;5.290;2023-04-03T07:26:17;530.22;;;22.88;;
24325;SDS011;12448;45.532;5.290;2023-04-03T07:28:42;1123.63;;;44.85;;
24325;SDS011;12448;45.532;5.290;2023-04-03T07:31:12;1381.72;;;39.78;;
24325;SDS011;12448;45.532;5.290;2023-04-03T07:33:42;1429.65;;;44.78;;
24325;SDS011;12448;45.532;5.290;2023-04-03T07:36:09;1392.03;;;44.58;;
24325;SDS011;12448;45.532;5.290;2023-04-03T07:38:42;1599.78;;;51.10;;
24325;SDS011;12448;45.532;5.290;2023-04-03T07:41:10;1384.93;;;46.75;;
24325;SDS011;12448;45.532;5.290;2023-04-03T07:43:40;490.95;;;23.77;;
24325;SDS011;12448;45.532;5.290;2023-04-03T07:46:06;920.00;;;37.15;;
24325;SDS011;12448;45.532;5.290;2023-04-03T07:48:31;766.25;;;31.63;;
24325;SDS011;12448;45.532;5.290;2023-04-03T07:51:00;1045.63;;;40.70;;
24325;SDS011;12448;45.532;5.290;2023-04-03T07:53:27;1116.65;;;42.30;;
24325;SDS011;12448;45.532;5.290;2023-04-03T07:55:53;876.97;;;34.45;;
24325;SDS011;12448;45.532;5.290;2023-04-03T07:58:21;949.15;;;39.30;;
24325;SDS011;12448;45.532;5.290;2023-04-03T08:00:47;1136.28;;;44.58;;
24325;SDS011;12448;45.532;5.290;2023-04-03T08:03:13;349.17;;;26.75;;
24325;SDS011;12448;45.532;5.290;2023-04-03T08:05:44;595.17;;;41.50;;
24325;SDS011;12448;45.532;5.290;2023-04-03T08:08:12;556.28;;;36.42;;
24325;SDS011;12448;45.532;5.290;2023-04-03T08:10:40;1259.07;;;47.33;;
24325;SDS011;12448;45.532;5.290;2023-04-03T08:13:06;584.78;;;28.35;;
24325;SDS011;12448;45.532;5.290;2023-04-03T08:15:32;627.30;;;30.95;;
24325;SDS011;12448;45.532;5.290;2023-04-03T08:17:58;504.55;;;28.20;;
24325;SDS011;12448;45.532;5.290;2023-04-03T08:20:25;327.00;;;24.70;;
24325;SDS011;12448;45.532;5.290;2023-04-03T08:22:52;400.17;;;26.02;;
24325;SDS011;12448;45.532;5.290;2023-04-03T08:25:17;234.65;;;23.08;;
24325;SDS011;12448;45.532;5.290;2023-04-03T08:27:43;311.30;;;30.30;;
24325;SDS011;12448;45.532;5.290;2023-04-03T08:30:12;238.85;;;29.25;;
24325;SDS011;12448;45.532;5.290;2023-04-03T08:32:38;258.88;;;26.48;;
24325;SDS011;12448;45.532;5.290;2023-04-03T08:35:06;120.32;;;20.60;;
24325;SDS011;12448;45.532;5.290;2023-04-03T08:37:34;96.22;;;19.10;;
24325;SDS011;12448;45.532;5.290;2023-04-03T08:40:02;329.85;;;25.55;;
24325;SDS011;12448;45.532;5.290;2023-04-03T08:48:54;35.97;;;16.80;;
24325;SDS011;12448;45.532;5.290;2023-04-03T08:50:59;37.42;;;17.92;;
24325;SDS011;12448;45.532;5.290;2023-04-03T08:53:31;267.67;;;21.73;;
24325;SDS011;12448;45.532;5.290;2023-04-03T08:56:04;44.00;;;19.20;;
24325;SDS011;12448;45.532;5.290;2023-04-03T08:59:10;150.60;;;19.80;;
24325;SDS011;12448;45.532;5.290;2023-04-03T09:01:38;37.20;;;18.63;;
24325;SDS011;12448;45.532;5.290;2023-04-03T09:04:12;32.45;;;17.08;;
24325;SDS011;12448;45.532;5.290;2023-04-03T09:06:39;58.42;;;17.85;;
24325;SDS011;12448;45.532;5.290;2023-04-03T09:20:28;34.13;;;19.25;;
24325;SDS011;12448;45.532;5.290;2023-04-03T09:25:47;34.95;;;18.42;;
24325;SDS011;12448;45.532;5.290;2023-04-03T09:28:14;40.28;;;22.88;;
24325;SDS011;12448;45.532;5.290;2023-04-03T09:30:40;53.25;;;29.52;;
24325;SDS011;12448;45.532;5.290;2023-04-03T09:33:06;31.60;;;18.45;;
24325;SDS011;12448;45.532;5.290;2023-04-03T09:35:33;30.00;;;19.08;;
24325;SDS011;12448;45.532;5.290;2023-04-03T09:40:38;30.20;;;18.05;;
24325;SDS011;12448;45.532;5.290;2023-04-03T09:45:49;22.55;;;14.45;;
24325;SDS011;12448;45.532;5.290;2023-04-03T09:48:20;23.92;;;14.63;;
24325;SDS011;12448;45.532;5.290;2023-04-03T09:55:55;21.70;;;14.30;;
24325;SDS011;12448;45.532;5.290;2023-04-03T09:58:28;21.50;;;12.85;;
24325;SDS011;12448;45.532;5.290;2023-04-03T10:00:58;17.38;;;9.55;;
24325;SDS011;12448;45.532;5.290;2023-04-03T10:03:35;24.20;;;14.75;;
24325;SDS011;12448;45.532;5.290;2023-04-03T10:06:04;19.80;;;12.50;;
24325;SDS011;12448;45.532;5.290;2023-04-03T10:08:58;23.65;;;14.80;;
24325;SDS011;12448;45.532;5.290;2023-04-03T10:11:26;21.02;;;13.93;;
24325;SDS011;12448;45.532;5.290;2023-04-03T10:13:53;21.30;;;14.02;;
24325;SDS011;12448;45.532;5.290;2023-04-03T10:16:44;22.38;;;13.27;;
24325;SDS011;12448;45.532;5.290;2023-04-03T10:21:50;21.35;;;14.75;;
24325;SDS011;12448;45.532;5.290;2023-04-03T10:27:15;33.90;;;20.95;;
24325;SDS011;12448;45.532;5.290;2023-04-03T10:29:55;22.02;;;14.05;;
24325;SDS011;12448;45.532;5.290;2023-04-03T10:35:18;167.80;;;77.03;;
24325;SDS011;12448;45.532;5.290;2023-04-03T10:43:47;22.45;;;15.98;;
24325;SDS011;12448;45.532;5.290;2023-04-03T10:46:17;22.23;;;14.55;;
24325;SDS011;12448;45.532;5.290;2023-04-03T10:49:14;18.10;;;13.20;;
24325;SDS011;12448;45.532;5.290;2023-04-03T10:54:37;21.83;;;14.07;;
24325;SDS011;12448;45.532;5.290;2023-04-03T10:57:08;20.30;;;13.57;;
24325;SDS011;12448;45.532;5.290;2023-04-03T10:59:36;19.42;;;13.18;;
24325;SDS011;12448;45.532;5.290;2023-04-03T11:02:14;34.83;;;19.20;;
24325;SDS011;12448;45.532;5.290;2023-04-03T11:05:51;18.90;;;13.10;;
24325;SDS011;12448;45.532;5.290;2023-04-03T11:07:51;20.17;;;13.00;;
24325;SDS011;12448;45.532;5.290;2023-04-03T11:10:26;28.25;;;16.08;;
24325;SDS011;12448;45.532;5.290;2023-04-03T11:13:13;49.97;;;26.40;;
24325;SDS011;12448;45.532;5.290;2023-04-03T11:15:50;19.17;;;13.15;;
24325;SDS011;12448;45.532;5.290;2023-04-03T11:20:57;17.33;;;12.70;;
24325;SDS011;12448;45.532;5.290;2023-04-03T11:23:30;20.48;;;13.00;;
24325;SDS011;12448;45.532;5.290;2023-04-03T11:26:05;19.65;;;13.80;;
24325;SDS011;12448;45.532;5.290;2023-04-03T11:28:39;32.55;;;20.30;;
24325;SDS011;12448;45.532;5.290;2023-04-03T11:31:21;15.70;;;11.45;;
24325;SDS011;12448;45.532;5.290;2023-04-03T11:34:06;21.05;;;13.82;;
24325;SDS011;12448;45.532;5.290;2023-04-03T11:37:03;25.10;;;16.95;;
24325;SDS011;12448;45.532;5.290;2023-04-03T11:39:38;20.25;;;12.30;;
24325;SDS011;12448;45.532;5.290;2023-04-03T11:53:41;81.07;;;34.33;;
24325;SDS011;12448;45.532;5.290;2023-04-03T11:56:50;73.57;;;37.88;;
24325;SDS011;12448;45.532;5.290;2023-04-03T12:01:47;18.55;;;12.85;;
24325;SDS011;12448;45.532;5.290;2023-04-03T12:04:15;19.67;;;13.02;;
24325;SDS011;12448;45.532;5.290;2023-04-03T12:11:49;14.88;;;11.50;;
24325;SDS011;12448;45.532;5.290;2023-04-03T12:14:15;19.77;;;12.85;;
24325;SDS011;12448;45.532;5.290;2023-04-03T12:16:45;22.08;;;17.17;;
24325;SDS011;12448;45.532;5.290;2023-04-03T12:19:27;21.00;;;16.42;;
24325;SDS011;12448;45.532;5.290;2023-04-03T12:22:09;23.35;;;18.27;;
24325;SDS011;12448;45.532;5.290;2023-04-03T12:24:39;17.17;;;12.45;;
24325;SDS011;12448;45.532;5.290;2023-04-03T12:27:29;22.25;;;15.27;;
24325;SDS011;12448;45.532;5.290;2023-04-03T12:35:29;17.00;;;11.10;;
24325;SDS011;12448;45.532;5.290;2023-04-03T12:46:49;14.90;;;11.30;;
24325;SDS011;12448;45.532;5.290;2023-04-03T12:52:16;15.82;;;11.70;;
24325;SDS011;12448;45.532;5.290;2023-04-03T12:54:48;16.50;;;12.27;;
24325;SDS011;12448;45.532;5.290;2023-04-03T12:59:47;24.08;;;11.55;;
24325;SDS011;12448;45.532;5.290;2023-04-03T13:04:53;19.67;;;10.70;;
24325;SDS011;12448;45.532;5.290;2023-04-03T13:07:25;64.93;;;34.42;;
24325;SDS011;12448;45.532;5.290;2023-04-03T13:09:58;15.30;;;11.00;;
24325;SDS011;12448;45.532;5.290;2023-04-03T13:12:25;16.85;;;12.00;;
24325;SDS011;12448;45.532;5.290;2023-04-03T13:14:54;32.72;;;18.65;;
24325;SDS011;12448;45.532;5.290;2023-04-03T13:17:22;81.03;;;45.38;;
24325;SDS011;12448;45.532;5.290;2023-04-03T13:19:49;68.60;;;37.63;;
24325;SDS011;12448;45.532;5.290;2023-04-03T13:22:23;60.88;;;35.38;;
24325;SDS011;12448;45.532;5.290;2023-04-03T13:25:09;39.95;;;23.50;;
24325;SDS011;12448;45.532;5.290;2023-04-03T13:27:38;17.42;;;10.77;;
24325;SDS011;12448;45.532;5.290;2023-04-03T13:30:17;26.17;;;17.67;;
24325;SDS011;12448;45.532;5.290;2023-04-03T13:32:53;35.70;;;22.02;;
24325;SDS011;12448;45.532;5.290;2023-04-03T13:35:38;20.08;;;13.27;;
24325;SDS011;12448;45.532;5.290;2023-04-03T13:38:07;21.02;;;13.20;;
24325;SDS011;12448;45.532;5.290;2023-04-03T13:40:52;14.13;;;9.63;;
24325;SDS011;12448;45.532;5.290;2023-04-03T13:43:30;19.30;;;11.95;;
24325;SDS011;12448;45.532;5.290;2023-04-03T13:48:35;22.45;;;15.18;;
24325;SDS011;12448;45.532;5.290;2023-04-03T13:53:47;17.27;;;11.73;;
24325;SDS011;12448;45.532;5.290;2023-04-03T13:56:30;14.80;;;11.43;;
24325;SDS011;12448;45.532;5.290;2023-04-03T14:01:43;20.17;;;12.35;;
24325;SDS011;12448;45.532;5.290;2023-04-03T14:04:19;15.25;;;9.95;;
24325;SDS011;12448;45.532;5.290;2023-04-03T14:06:47;17.17;;;10.02;;
24325;SDS011;12448;45.532;5.290;2023-04-03T14:09:13;11.95;;;8.88;;
24325;SDS011;12448;45.532;5.290;2023-04-03T14:11:40;11.27;;;7.93;;
24325;SDS011;12448;45.532;5.290;2023-04-03T14:14:11;18.95;;;11.20;;
24325;SDS011;12448;45.532;5.290;2023-04-03T14:16:47;13.95;;;9.63;;
24325;SDS011;12448;45.532;5.290;2023-04-03T14:19:23;16.88;;;10.77;;
24325;SDS011;12448;45.532;5.290;2023-04-03T14:21:52;26.27;;;14.82;;
24325;SDS011;12448;45.532;5.290;2023-04-03T14:24:19;20.83;;;11.77;;
24325;SDS011;12448;45.532;5.290;2023-04-03T14:26:50;13.18;;;9.93;;
24325;SDS011;12448;45.532;5.290;2023-04-03T14:29:17;20.85;;;12.43;;
24325;SDS011;12448;45.532;5.290;2023-04-03T14:31:43;23.05;;;12.45;;
24325;SDS011;12448;45.532;5.290;2023-04-03T14:34:11;22.40;;;12.25;;
24325;SDS011;12448;45.532;5.290;2023-04-03T14:36:38;20.10;;;11.13;;
24325;SDS011;12448;45.532;5.290;2023-04-03T14:39:07;23.77;;;13.57;;
24325;SDS011;12448;45.532;5.290;2023-04-03T14:41:35;19.23;;;11.10;;
24325;SDS011;12448;45.532;5.290;2023-04-03T14:44:01;21.92;;;12.73;;
24325;SDS011;12448;45.532;5.290;2023-04-03T14:46:37;13.82;;;9.35;;
24325;SDS011;12448;45.532;5.290;2023-04-03T14:49:20;15.70;;;10.57;;
24325;SDS011;12448;45.532;5.290;2023-04-03T14:51:48;13.75;;;8.70;;
24325;SDS011;12448;45.532;5.290;2023-04-03T14:54:16;12.48;;;9.20;;
24325;SDS011;12448;45.532;5.290;2023-04-03T14:56:46;18.53;;;9.73;;
24325;SDS011;12448;45.532;5.290;2023-04-03T14:59:13;13.02;;;9.15;;
24325;SDS011;12448;45.532;5.290;2023-04-03T15:01:45;13.38;;;8.77;;
24325;SDS011;12448;45.532;5.290;2023-04-03T15:04:18;9.70;;;7.15;;
24325;SDS011;12448;45.532;5.290;2023-04-03T15:06:55;12.50;;;7.68;;
24325;SDS011;12448;45.532;5.290;2023-04-03T15:11:49;10.73;;;7.28;;
24325;SDS011;12448;45.532;5.290;2023-04-03T15:14:15;13.60;;;7.30;;
24325;SDS011;12448;45.532;5.290;2023-04-03T15:16:41;9.00;;;6.82;;
24325;SDS011;12448;45.532;5.290;2023-04-03T15:19:07;10.80;;;7.22;;
24325;SDS011;12448;45.532;5.290;2023-04-03T15:21:33;8.75;;;6.80;;
24325;SDS011;12448;45.532;5.290;2023-04-03T15:23:59;10.63;;;6.13;;
24325;SDS011;12448;45.532;5.290;2023-04-03T15:26:24;7.60;;;5.75;;
24325;SDS011;12448;45.532;5.290;2023-04-03T15:28:50;10.57;;;6.60;;
24325;SDS011;12448;45.532;5.290;2023-04-03T15:31:16;7.45;;;5.85;;
24325;SDS011;12448;45.532;5.290;2023-04-03T15:33:42;12.60;;;5.40;;
24325;SDS011;12448;45.532;5.290;2023-04-03T15:36:08;8.45;;;5.65;;
24325;SDS011;12448;45.532;5.290;2023-04-03T15:38:34;8.82;;;5.90;;
24325;SDS011;12448;45.532;5.290;2023-04-03T15:41:03;8.90;;;5.97;;
24325;SDS011;12448;45.532;5.290;2023-04-03T15:43:30;9.50;;;5.80;;
24325;SDS011;12448;45.532;5.290;2023-04-03T15:45:56;11.18;;;7.63;;
24325;SDS011;12448;45.532;5.290;2023-04-03T15:48:24;9.43;;;7.07;;
24325;SDS011;12448;45.532;5.290;2023-04-03T15:50:51;5.70;;;5.05;;
24325;SDS011;12448;45.532;5.290;2023-04-03T15:53:17;7.50;;;6.13;;
24325;SDS011;12448;45.532;5.290;2023-04-03T15:55:42;7.35;;;6.30;;
24325;SDS011;12448;45.532;5.290;2023-04-03T15:58:08;6.95;;;5.85;;
24325;SDS011;12448;45.532;5.290;2023-04-03T16:00:34;16.98;;;8.40;;
24325;SDS011;12448;45.532;5.290;2023-04-03T16:03:05;9.75;;;6.78;;
24325;SDS011;12448;45.532;5.290;2023-04-03T16:05:35;12.90;;;8.05;;
24325;SDS011;12448;45.532;5.290;2023-04-03T16:08:02;10.55;;;7.57;;
24325;SDS011;12448;45.532;5.290;2023-04-03T16:10:28;10.75;;;6.13;;
24325;SDS011;12448;45.532;5.290;2023-04-03T16:12:54;19.63;;;9.13;;
24325;SDS011;12448;45.532;5.290;2023-04-03T16:15:20;9.10;;;5.35;;
24325;SDS011;12448;45.532;5.290;2023-04-03T16:17:49;20.20;;;10.80;;
24325;SDS011;12448;45.532;5.290;2023-04-03T16:20:15;8.00;;;6.03;;